Time;durP1;ratioP1;P1;durP2;ratioP2;P2;SDS_P1;SDS_P2;PMS_P1;PMS_P2;Temp;Humidity;BMP_temperature;BMP_pressure;BME280_temperature;BME280_humidity;BME280_pressure;Samples;Min_cycle;Max_cycle;Signal;HPM_P1;HPM_P2
2021/07/05 00:01:58;;;;;;;4.75;3.88;;;;;;;16.99;70.47;99579.13;154047;1101;103170;-73
2021/07/05 00:05:03;;;;;;;5.53;4.20;;;;;;;16.97;70.36;99571.25;154149;1096;103273;-72
2021/07/05 00:08:09;;;;;;;7.70;5.43;;;;;;;17.00;70.53;99578.93;153990;1096;103130;-73
2021/07/05 00:11:14;;;;;;;7.17;5.40;;;;;;;16.98;70.29;99580.19;153989;1101;103217;-74
2021/07/05 00:14:19;;;;;;;6.85;5.40;;;;;;;16.95;70.27;99581.42;154000;1101;103196;-74
2021/07/05 00:17:24;;;;;;;7.18;5.00;;;;;;;16.94;70.17;99579.78;154015;1096;103221;-76
2021/07/05 00:20:31;;;;;;;6.33;4.83;;;;;;;16.92;70.44;99581.86;153926;1101;103473;-76
2021/07/05 00:23:36;;;;;;;5.95;5.35;;;;;;;16.87;70.32;99577.09;154061;1101;103264;-76
2021/07/05 00:26:41;;;;;;;4.88;4.35;;;;;;;16.85;70.46;99591.81;153948;1101;103132;-76
2021/07/05 00:29:47;;;;;;;9.75;4.08;;;;;;;16.83;70.29;99594.72;153955;1101;103147;-77
2021/07/05 00:32:53;;;;;;;5.70;4.60;;;;;;;16.82;70.22;99593.08;153965;1101;103501;-77
2021/07/05 00:35:58;;;;;;;8.55;5.08;;;;;;;16.78;70.08;99597.20;153980;1101;103195;-77
2021/07/05 00:39:06;;;;;;;5.60;4.63;;;;;;;16.75;70.07;99594.91;153945;1101;103266;-77
2021/07/05 00:42:11;;;;;;;5.28;4.25;;;;;;;16.72;70.24;99595.32;153944;1095;103133;-75
2021/07/05 00:45:17;;;;;;;6.35;4.68;;;;;;;16.70;70.11;99583.92;154032;1101;103113;-75
2021/07/05 00:48:23;;;;;;;5.57;4.60;;;;;;;16.68;69.85;99583.31;153981;1101;103231;-74
2021/07/05 00:51:28;;;;;;;6.08;4.75;;;;;;;16.65;70.33;99578.36;153964;1101;103334;-73
2021/07/05 00:54:33;;;;;;;5.23;4.30;;;;;;;16.70;69.96;99583.92;154063;1101;103130;-70
2021/07/05 00:57:38;;;;;;;7.30;4.60;;;;;;;16.73;69.82;99577.31;153837;1096;103138;-72
2021/07/05 01:00:43;;;;;;;6.40;4.90;;;;;;;16.73;69.69;99567.36;153940;1101;103202;-71
2021/07/05 01:03:48;;;;;;;6.67;4.70;;;;;;;16.68;70.07;99572.53;153996;1096;103203;-73
2021/07/05 01:06:53;;;;;;;8.00;5.10;;;;;;;16.66;70.10;99569.23;153969;1101;103201;-74
2021/07/05 01:09:58;;;;;;;6.73;5.38;;;;;;;16.61;70.12;99563.63;154009;1101;103190;-77
2021/07/05 01:13:04;;;;;;;7.10;5.17;;;;;;;16.55;70.30;99564.47;153982;1101;103199;-77
2021/07/05 01:16:09;;;;;;;5.23;4.58;;;;;;;16.51;70.02;99561.37;154016;1095;103227;-74
2021/07/05 01:19:15;;;;;;;5.55;4.00;;;;;;;16.48;69.99;99565.31;154205;1101;103203;-75
2021/07/05 01:22:20;;;;;;;5.90;4.35;;;;;;;16.45;70.07;99554.95;153954;1101;103289;-77
2021/07/05 01:25:27;;;;;;;6.10;4.33;;;;;;;16.44;69.77;99553.30;153994;1095;103161;-77
2021/07/05 01:28:32;;;;;;;6.20;4.97;;;;;;;16.40;69.85;99552.08;153964;1096;103123;-76
2021/07/05 01:31:37;;;;;;;5.95;4.55;;;;;;;16.39;70.03;99552.27;153966;1101;103135;-76
2021/07/05 01:34:42;;;;;;;6.77;4.80;;;;;;;16.37;69.93;99548.97;153970;1096;103144;-76
2021/07/05 01:37:47;;;;;;;6.00;4.65;;;;;;;16.32;69.91;99544.22;153972;1096;103214;-75
2021/07/05 01:40:57;;;;;;;8.07;5.03;;;;;;;16.26;69.84;99545.88;153995;1101;103131;-75
2021/07/05 01:44:02;;;;;;;5.87;4.60;;;;;;;16.20;70.02;99537.78;153984;1101;103203;-75
2021/07/05 01:47:07;;;;;;;5.45;4.15;;;;;;;16.19;69.73;99539.66;154001;1095;103147;-75
2021/07/05 01:50:13;;;;;;;4.33;3.93;;;;;;;16.18;70.20;99542.55;153968;1094;103203;-75
2021/07/05 01:53:19;;;;;;;5.70;4.18;;;;;;;16.19;70.20;99536.96;153912;1096;103279;-76
2021/07/05 01:56:24;;;;;;;5.73;4.67;;;;;;;16.18;69.70;99550.63;153975;1096;103227;-75
2021/07/05 01:59:29;;;;;;;7.05;4.73;;;;;;;16.14;69.88;99538.62;153953;1096;103217;-76
2021/07/05 02:02:34;;;;;;;8.93;4.85;;;;;;;16.11;69.74;99550.63;154091;1101;103190;-77
2021/07/05 02:05:40;;;;;;;5.63;4.78;;;;;;;16.07;69.82;99547.52;154096;1101;103474;-75
2021/07/05 02:08:46;;;;;;;4.93;4.35;;;;;;;16.04;70.15;99550.61;153979;1096;103363;-77
2021/07/05 02:11:51;;;;;;;6.73;4.60;;;;;;;16.04;70.17;99541.72;153964;1101;103224;-77
2021/07/05 02:14:56;;;;;;;5.95;4.18;;;;;;;16.06;69.80;99543.16;154007;1101;103046;-74
2021/07/05 02:18:01;;;;;;;8.18;4.68;;;;;;;16.09;70.34;99544.63;154053;1101;103126;-74
2021/07/05 02:21:08;;;;;;;9.88;5.45;;;;;;;16.13;70.15;99547.71;153991;1101;103225;-75
2021/07/05 02:24:13;;;;;;;10.67;6.17;;;;;;;16.13;69.85;99545.02;154036;1101;103263;-75
2021/07/05 02:27:18;;;;;;;10.60;6.40;;;;;;;16.11;70.02;99547.94;154034;1101;103564;-74
2021/07/05 02:30:25;;;;;;;8.73;6.17;;;;;;;16.11;70.32;99550.63;153962;1101;103131;-74
2021/07/05 02:33:32;;;;;;;8.90;6.13;;;;;;;16.07;69.92;99552.05;154006;1101;103107;-73
2021/07/05 02:36:37;;;;;;;9.25;5.60;;;;;;;16.01;69.96;99553.73;154020;1101;103099;-73
2021/07/05 02:39:42;;;;;;;11.80;6.68;;;;;;;16.01;69.82;99558.27;153958;1101;103376;-74
2021/07/05 02:42:48;;;;;;;12.05;6.58;;;;;;;15.97;70.08;99557.02;153956;1101;103198;-74
2021/07/05 02:45:57;;;;;;;8.20;6.20;;;;;;;15.98;70.37;99559.52;153978;1101;103197;-74
2021/07/05 02:49:02;;;;;;;7.70;6.00;;;;;;;16.01;70.01;99560.95;154047;1101;103224;-74
2021/07/05 02:52:07;;;;;;;11.03;6.70;;;;;;;16.03;70.39;99554.36;153958;1095;103202;-71
2021/07/05 02:55:13;;;;;;;9.80;7.10;;;;;;;16.04;70.11;99566.76;153890;1101;103260;-72
2021/07/05 02:58:19;;;;;;;10.95;6.98;;;;;;;16.01;70.25;99567.19;153963;1101;103161;-74
2021/07/05 03:01:25;;;;;;;10.83;6.90;;;;;;;16.04;70.00;99563.25;153974;1095;103129;-71
2021/07/05 03:04:30;;;;;;;9.00;5.95;;;;;;;16.07;70.37;99574.44;154022;1101;103122;-73
2021/07/05 03:07:36;;;;;;;10.15;5.50;;;;;;;16.13;70.76;99574.63;153979;1101;103111;-74
2021/07/05 03:10:44;;;;;;;9.80;6.70;;;;;;;16.26;70.72;99571.94;154085;1101;103275;-73
2021/07/05 03:13:49;;;;;;;8.57;6.10;;;;;;;16.55;71.88;99572.55;153999;1096;103531;-72
2021/07/05 03:16:54;;;;;;;9.23;5.88;;;;;;;16.86;71.42;99567.36;154018;1101;103606;-74
2021/07/05 03:19:59;;;;;;;11.23;7.40;;;;;;;17.14;70.21;99568.11;154170;1101;103219;-73
2021/07/05 03:23:06;;;;;;;11.00;7.50;;;;;;;17.21;69.96;99580.52;154190;1101;103122;-73
2021/07/05 03:26:11;;;;;;;9.90;5.97;;;;;;;17.36;70.49;99577.56;154176;1095;103216;-74
2021/07/05 03:29:16;;;;;;;8.95;6.35;;;;;;;17.51;70.11;99571.06;154213;1101;103489;-73
2021/07/05 03:32:21;;;;;;;10.23;6.60;;;;;;;17.60;69.75;99572.47;154078;1101;103194;-73
2021/07/05 03:35:27;;;;;;;8.08;6.30;;;;;;;17.83;70.86;99572.73;154024;1096;103077;-72
2021/07/05 03:38:32;;;;;;;10.30;5.80;;;;;;;18.14;70.13;99562.19;153976;1096;103138;-73
2021/07/05 03:41:37;;;;;;;7.53;5.67;;;;;;;18.44;70.08;99563.17;153944;1096;103270;-74
2021/07/05 03:44:42;;;;;;;8.50;5.70;;;;;;;18.77;70.00;99562.03;153983;1096;103136;-74
2021/07/05 03:47:47;;;;;;;8.93;6.40;;;;;;;19.23;69.35;99563.41;153969;1101;103203;-74
2021/07/05 03:50:53;;;;;;;6.83;5.30;;;;;;;19.62;69.14;99566.65;153952;1101;103121;-74
2021/07/05 03:53:58;;;;;;;6.28;5.50;;;;;;;19.95;69.09;99572.68;154011;1096;103190;-74
2021/07/05 03:57:03;;;;;;;7.00;5.30;;;;;;;20.22;68.81;99580.40;153984;1096;103186;-74
2021/07/05 04:00:11;;;;;;;7.43;5.40;;;;;;;20.48;68.31;99577.25;153974;1096;103226;-73
2021/07/05 04:03:16;;;;;;;9.15;5.23;;;;;;;20.70;68.22;99569.38;154104;1101;103195;-73
2021/07/05 04:06:22;;;;;;;6.87;4.97;;;;;;;20.97;68.10;99577.02;153943;1101;103515;-73
2021/07/05 04:09:26;;;;;;;6.25;5.10;;;;;;;21.05;67.68;99576.64;153960;1101;103129;-73
2021/07/05 04:12:33;;;;;;;6.83;5.50;;;;;;;21.11;67.44;99581.14;153943;1101;103189;-73
2021/07/05 04:15:38;;;;;;;6.93;5.67;;;;;;;21.10;67.49;99587.61;154012;1096;103121;-73
2021/07/05 04:18:43;;;;;;;6.60;5.75;;;;;;;21.12;67.65;99584.67;153994;1096;103188;-73
2021/07/05 04:21:48;;;;;;;10.00;5.88;;;;;;;21.07;67.65;99584.55;153954;1096;103102;-72
2021/07/05 04:24:53;;;;;;;5.93;5.20;;;;;;;21.04;67.62;99577.73;153971;1101;103203;-72
2021/07/05 04:27:58;;;;;;;7.45;5.55;;;;;;;21.11;67.75;99575.72;153965;1096;103290;-73
2021/07/05 04:31:04;;;;;;;6.67;5.33;;;;;;;21.16;67.74;99570.38;154154;1101;103194;-73
2021/07/05 04:34:09;;;;;;;5.30;4.63;;;;;;;21.28;67.62;99580.38;153949;1101;103156;-73
2021/07/05 04:37:14;;;;;;;5.18;4.68;;;;;;;21.57;66.91;99575.83;153943;1101;103128;-73
2021/07/05 04:40:20;;;;;;;9.87;7.20;;;;;;;21.88;66.85;99579.96;153966;1101;103195;-73
2021/07/05 04:43:25;;;;;;;6.73;5.50;;;;;;;22.11;66.39;99576.28;153928;1101;103236;-73
2021/07/05 04:46:30;;;;;;;5.95;4.60;;;;;;;22.27;66.06;99582.83;153934;1101;103157;-74
2021/07/05 04:49:36;;;;;;;6.95;5.50;;;;;;;22.44;66.66;99579.27;153931;1096;103130;-72
2021/07/05 04:52:42;;;;;;;6.50;5.83;;;;;;;22.45;66.15;99578.21;153982;1101;103196;-73
2021/07/05 04:55:47;;;;;;;7.07;6.17;;;;;;;22.44;66.44;99581.98;154059;1095;103575;-73
2021/07/05 04:58:52;;;;;;;8.53;6.73;;;;;;;22.41;66.35;99582.50;154013;1101;103578;-74
2021/07/05 05:01:57;;;;;;;5.08;4.55;;;;;;;22.40;66.20;99569.97;154007;1101;103171;-73
2021/07/05 05:05:04;;;;;;;6.05;4.80;;;;;;;22.35;66.06;99576.16;153962;1094;103195;-75
2021/07/05 05:08:09;;;;;;;7.30;6.60;;;;;;;22.36;65.96;99572.35;153938;1101;103370;-75
2021/07/05 05:11:14;;;;;;;7.48;6.33;;;;;;;22.37;65.91;99573.20;153994;1096;103227;-73
2021/07/05 05:14:20;;;;;;;7.83;7.13;;;;;;;22.34;66.26;99578.06;153934;1096;103275;-73
2021/07/05 05:17:25;;;;;;;7.43;5.73;;;;;;;22.32;65.97;99568.48;154038;1101;103345;-74
2021/07/05 05:20:31;;;;;;;7.87;6.47;;;;;;;22.40;65.82;99573.50;154005;1096;103254;-74
2021/07/05 05:23:36;;;;;;;9.25;7.45;;;;;;;22.52;65.91;99578.88;153981;1101;103797;-73
2021/07/05 05:26:41;;;;;;;6.60;6.00;;;;;;;22.70;65.74;99570.43;154242;1101;103128;-74
2021/07/05 05:29:46;;;;;;;5.40;4.90;;;;;;;22.90;65.45;99564.47;154070;1096;103277;-73
2021/07/05 05:32:52;;;;;;;6.37;5.73;;;;;;;23.12;65.10;99564.51;154009;1101;103226;-73
2021/07/05 05:35:57;;;;;;;5.40;4.60;;;;;;;23.35;65.11;99561.80;153929;1096;103253;-73
2021/07/05 05:39:04;;;;;;;5.57;5.03;;;;;;;23.49;64.77;99558.41;153964;1101;103259;-73
2021/07/05 05:42:09;;;;;;;10.13;7.98;;;;;;;23.74;64.83;99567.93;154043;1096;103124;-75
2021/07/05 05:45:15;;;;;;;5.48;4.95;;;;;;;23.90;64.60;99572.50;154046;1095;103259;-73
2021/07/05 05:48:20;;;;;;;6.10;5.00;;;;;;;24.00;64.02;99576.38;154013;1101;103135;-73
2021/07/05 05:51:30;;;;;;;7.80;7.00;;;;;;;24.11;64.48;99578.12;153980;1096;103126;-74
2021/07/05 05:54:36;;;;;;;9.85;8.23;;;;;;;24.14;64.94;99583.06;153926;1095;103145;-73
2021/07/05 05:57:41;;;;;;;5.98;5.35;;;;;;;24.24;63.90;99585.05;153984;1096;103201;-73
2021/07/05 06:00:46;;;;;;;9.28;8.33;;;;;;;24.40;64.74;99581.35;153970;1101;103183;-73
2021/07/05 06:03:52;;;;;;;6.10;5.50;;;;;;;24.49;63.86;99570.80;154025;1101;103512;-73
2021/07/05 06:06:58;;;;;;;9.13;8.33;;;;;;;24.60;64.90;99575.27;154019;1095;103050;-73
2021/07/05 06:10:03;;;;;;;10.07;9.10;;;;;;;24.68;64.09;99574.77;154014;1101;103148;-73
2021/07/05 06:13:08;;;;;;;10.30;9.30;;;;;;;24.42;64.49;99570.19;153945;1096;103227;-73
2021/07/05 06:16:14;;;;;;;10.20;9.20;;;;;;;24.09;64.71;99575.64;154054;1101;103298;-72
2021/07/05 06:19:19;;;;;;;10.90;9.90;;;;;;;23.72;64.94;99572.81;153971;1101;103163;-72
2021/07/05 06:22:28;;;;;;;9.27;8.37;;;;;;;23.59;65.75;99573.22;153952;1101;103128;-72
2021/07/05 06:25:34;;;;;;;10.83;6.60;;;;;;;23.77;65.44;99578.33;153935;1101;103121;-73
2021/07/05 06:28:40;;;;;;;9.38;8.38;;;;;;;24.00;65.25;99570.92;153992;1094;103131;-73
2021/07/05 06:31:45;;;;;;;9.93;8.73;;;;;;;23.98;65.60;99564.91;153905;1101;103296;-73
2021/07/05 06:34:50;;;;;;;9.68;8.50;;;;;;;24.19;65.76;99566.76;153955;1095;103128;-72
2021/07/05 06:37:55;;;;;;;10.15;8.03;;;;;;;24.45;65.18;99566.95;154023;1101;103183;-72
2021/07/05 06:41:01;;;;;;;9.73;8.55;;;;;;;24.28;64.28;99572.54;153936;1096;103680;-73
2021/07/05 06:44:06;;;;;;;9.58;8.60;;;;;;;23.99;64.47;99570.11;153964;1101;103128;-73
2021/07/05 06:47:11;;;;;;;7.78;7.08;;;;;;;24.07;65.41;99575.08;153956;1101;103292;-73
2021/07/05 06:50:17;;;;;;;9.58;7.55;;;;;;;24.37;65.18;99581.08;153969;1101;103187;-72
2021/07/05 06:53:22;;;;;;;7.23;6.53;;;;;;;24.52;64.92;99583.11;153990;1101;103198;-72
2021/07/05 06:56:27;;;;;;;7.53;6.83;;;;;;;24.60;64.61;99586.19;153900;1096;103200;-72
2021/07/05 06:59:32;;;;;;;7.53;6.83;;;;;;;24.65;64.12;99578.05;153971;1101;103122;-72
2021/07/05 07:02:37;;;;;;;7.53;6.73;;;;;;;24.61;63.72;99573.36;153957;1095;103139;-73
2021/07/05 07:05:43;;;;;;;6.50;5.90;;;;;;;24.48;63.24;99574.59;153997;1101;103153;-72
2021/07/05 07:08:48;;;;;;;7.27;6.57;;;;;;;24.46;63.55;99574.88;153956;1101;103163;-72
2021/07/05 07:11:52;;;;;;;6.97;6.33;;;;;;;24.34;63.37;99562.50;153929;1101;103201;-72
2021/07/05 07:14:57;;;;;;;7.63;6.90;;;;;;;24.26;63.47;99572.80;153954;1101;103197;-72
2021/07/05 07:18:07;;;;;;;8.00;6.93;;;;;;;24.09;61.69;99574.83;153947;1101;103189;-72
2021/07/05 07:21:13;;;;;;;7.05;6.38;;;;;;;23.87;64.13;99575.73;154029;1101;103138;-73
2021/07/05 07:24:19;;;;;;;7.43;6.50;;;;;;;23.81;63.03;99562.33;153974;1101;103155;-72
2021/07/05 07:27:24;;;;;;;7.53;6.53;;;;;;;23.57;63.40;99561.76;153968;1096;103195;-72
2021/07/05 07:30:29;;;;;;;7.57;6.87;;;;;;;23.40;63.16;99559.92;154021;1101;103227;-72
2021/07/05 07:33:34;;;;;;;8.05;7.25;;;;;;;23.31;63.90;99564.20;153963;1101;103279;-72
2021/07/05 07:36:40;;;;;;;8.70;7.18;;;;;;;23.31;64.54;99564.20;153987;1101;103199;-73
2021/07/05 07:39:48;;;;;;;9.00;7.23;;;;;;;23.40;64.92;99557.20;153950;1096;103151;-72
2021/07/05 07:42:53;;;;;;;7.55;6.83;;;;;;;23.39;63.99;99555.58;153991;1101;103217;-72
2021/07/05 07:45:58;;;;;;;7.37;6.67;;;;;;;23.48;63.86;99551.33;153960;1101;103144;-72
2021/07/05 07:49:03;;;;;;;7.73;7.03;;;;;;;23.56;63.57;99557.38;153963;1096;103272;-73
2021/07/05 07:52:09;;;;;;;8.17;7.13;;;;;;;23.77;62.55;99555.69;153983;1101;103136;-73
2021/07/05 07:55:16;;;;;;;6.90;6.30;;;;;;;23.81;63.41;99546.80;153979;1101;103556;-72
2021/07/05 07:58:21;;;;;;;8.07;7.37;;;;;;;23.80;62.74;99547.86;153946;1101;103152;-72
2021/07/05 08:01:28;;;;;;;8.40;7.25;;;;;;;23.69;62.71;99543.35;154025;1101;103142;-72
2021/07/05 08:04:33;;;;;;;9.25;8.35;;;;;;;23.53;62.69;99545.10;153954;1096;103209;-72
2021/07/05 08:07:40;;;;;;;9.37;8.47;;;;;;;23.55;62.83;99548.39;154006;1096;103145;-72
2021/07/05 08:10:46;;;;;;;8.85;7.98;;;;;;;23.64;63.21;99541.41;153971;1095;103195;-72
2021/07/05 08:13:51;;;;;;;8.38;7.58;;;;;;;23.81;63.51;99535.89;153931;1096;103124;-72
2021/07/05 08:16:56;;;;;;;9.20;8.30;;;;;;;23.95;63.24;99530.02;153984;1101;103128;-72
2021/07/05 08:20:01;;;;;;;8.43;7.35;;;;;;;24.05;62.41;99530.91;153962;1101;103382;-72
2021/07/05 08:23:06;;;;;;;7.55;6.85;;;;;;;24.24;62.68;99535.98;153988;1101;103164;-72
2021/07/05 08:26:12;;;;;;;8.27;7.47;;;;;;;24.44;62.87;99541.59;153937;1101;103620;-72
2021/07/05 08:29:17;;;;;;;9.43;7.90;;;;;;;24.64;62.54;99551.02;153930;1101;103145;-73
2021/07/05 08:32:22;;;;;;;9.70;7.80;;;;;;;24.73;62.30;99545.88;153979;1101;103152;-72
2021/07/05 08:35:27;;;;;;;8.90;8.10;;;;;;;24.90;62.31;99546.52;153951;1101;103272;-72
2021/07/05 08:38:32;;;;;;;9.08;8.20;;;;;;;24.93;62.40;99548.72;153975;1101;103198;-72
2021/07/05 08:41:37;;;;;;;8.83;8.03;;;;;;;24.82;62.21;99547.84;153955;1096;103556;-72
2021/07/05 08:44:42;;;;;;;12.00;10.70;;;;;;;24.84;62.30;99553.84;154096;1096;103132;-73
2021/07/05 08:47:51;;;;;;;10.20;8.87;;;;;;;24.79;61.10;99550.27;154020;1101;103113;-72
2021/07/05 08:50:56;;;;;;;9.90;8.98;;;;;;;24.70;62.70;99536.32;154003;1101;103206;-72
2021/07/05 08:54:02;;;;;;;9.75;8.85;;;;;;;24.74;62.19;99531.16;153985;1101;103196;-72
2021/07/05 08:57:26;;;;;;;10.13;7.90;;;;;;;24.93;62.80;99534.27;154034;1096;103203;-72
2021/07/05 09:00:32;;;;;;;10.47;9.47;;;;;;;24.91;61.98;99533.71;153977;1101;103208;-72
2021/07/05 09:03:38;;;;;;;10.67;9.00;;;;;;;24.91;62.19;99542.71;154035;1096;103166;-73
2021/07/05 09:07:04;;;;;;;9.10;8.20;;;;;;;25.10;62.01;99534.89;154025;1101;103333;-72
2021/07/05 09:10:12;;;;;;;10.35;9.45;;;;;;;25.14;61.19;99533.27;153993;1101;103240;-72
2021/07/05 09:13:21;;;;;;;8.63;7.83;;;;;;;24.91;61.93;99526.34;154040;1101;103147;-72
2021/07/05 09:16:35;;;;;;;10.78;9.68;;;;;;;24.79;62.03;99528.44;154003;1095;103196;-71
2021/07/05 09:19:40;;;;;;;10.27;9.27;;;;;;;24.92;62.15;99525.23;154009;1101;103502;-71
2021/07/05 09:23:13;;;;;;;9.43;8.63;;;;;;;25.27;62.00;99529.25;154095;1096;103286;-73
2021/07/05 09:26:23;;;;;;;10.13;9.23;;;;;;;25.69;61.74;99524.69;154163;1101;103265;-71
2021/07/05 09:29:28;;;;;;;10.55;9.18;;;;;;;25.94;61.56;99521.19;153834;1101;103150;-70
2021/07/05 09:32:34;;;;;;;9.63;8.73;;;;;;;25.81;59.59;99517.89;153849;1101;103199;-70
2021/07/05 09:35:40;;;;;;;10.18;9.18;;;;;;;25.66;60.54;99523.33;153823;1096;103599;-72
2021/07/05 09:38:46;;;;;;;10.53;9.53;;;;;;;25.51;60.91;99529.58;153837;1101;103201;-71
2021/07/05 09:41:55;;;;;;;10.70;9.80;;;;;;;25.44;60.95;99524.39;153843;1101;103116;-70
2021/07/05 09:45:01;;;;;;;11.90;10.60;;;;;;;25.41;60.77;99535.84;153947;1096;103136;-70
2021/07/05 09:48:18;;;;;;;12.45;11.25;;;;;;;25.38;59.77;99528.17;153813;1101;103096;-70
2021/07/05 09:51:22;;;;;;;12.83;11.68;;;;;;;25.33;60.98;99533.64;153941;1096;103190;-73
2021/07/05 09:54:27;;;;;;;12.45;11.35;;;;;;;25.40;60.20;99533.37;153818;1101;103257;-70
2021/07/05 09:57:45;;;;;;;12.30;11.20;;;;;;;25.50;59.41;99532.57;153824;1101;103237;-70
2021/07/05 10:00:50;;;;;;;11.70;10.70;;;;;;;25.63;59.52;99537.52;153865;1096;103263;-70
2021/07/05 10:04:05;;;;;;;11.13;10.00;;;;;;;25.70;59.80;99529.08;153823;1101;103150;-70
2021/07/05 10:07:10;;;;;;;9.40;8.50;;;;;;;25.84;59.32;99535.64;153820;1101;103170;-70
2021/07/05 10:10:18;;;;;;;9.30;8.43;;;;;;;25.78;59.10;99540.28;153791;1101;103230;-70
2021/07/05 10:13:23;;;;;;;10.35;9.35;;;;;;;25.78;59.38;99537.55;153866;1101;103198;-71
2021/07/05 10:16:28;;;;;;;10.33;9.38;;;;;;;25.85;59.23;99538.11;153878;1095;103107;-70
2021/07/05 10:19:34;;;;;;;9.23;8.43;;;;;;;25.85;58.98;99545.50;153765;1096;103163;-69
2021/07/05 10:22:39;;;;;;;8.97;8.17;;;;;;;26.00;58.97;99537.34;153849;1101;103182;-69
2021/07/05 10:25:47;;;;;;;10.73;9.03;;;;;;;26.10;58.67;99543.88;153846;1101;103244;-70
2021/07/05 10:28:53;;;;;;;10.33;9.43;;;;;;;26.13;58.69;99541.42;153877;1096;103129;-70
2021/07/05 10:31:59;;;;;;;10.40;9.30;;;;;;;26.19;58.50;99545.82;153854;1096;103206;-70
2021/07/05 10:35:07;;;;;;;9.70;8.90;;;;;;;26.14;57.67;99548.55;153801;1101;103228;-70
2021/07/05 10:38:16;;;;;;;9.93;9.05;;;;;;;25.97;58.16;99558.92;153836;1101;103128;-71
2021/07/05 10:41:22;;;;;;;9.55;8.73;;;;;;;25.92;58.24;99556.18;153846;1101;103272;-71
2021/07/05 10:44:43;;;;;;;9.43;8.55;;;;;;;25.90;58.14;99547.40;153880;1101;103113;-71
2021/07/05 10:47:54;;;;;;;8.75;7.95;;;;;;;25.93;58.19;99546.90;153829;1096;103221;-70
2021/07/05 10:50:59;;;;;;;9.68;8.70;;;;;;;26.02;58.47;99548.82;153823;1096;103160;-70
2021/07/05 10:54:05;;;;;;;8.33;7.63;;;;;;;26.17;58.19;99542.51;153835;1096;103130;-70
2021/07/05 10:57:10;;;;;;;8.70;7.80;;;;;;;26.27;58.04;99546.34;153819;1101;103295;-70
2021/07/05 11:00:19;;;;;;;7.98;7.28;;;;;;;26.36;57.72;99541.97;153872;1101;103121;-70
2021/07/05 11:03:48;;;;;;;8.65;7.95;;;;;;;26.38;57.41;99537.84;153919;1096;103199;-70
2021/07/05 11:06:53;;;;;;;8.15;7.45;;;;;;;26.47;57.10;99535.39;153856;1095;103266;-70
2021/07/05 11:09:59;;;;;;;8.67;7.77;;;;;;;26.63;57.41;99533.47;153961;1101;103895;-70
2021/07/05 11:13:06;;;;;;;8.93;8.13;;;;;;;26.81;57.57;99532.88;153951;1094;103493;-71
2021/07/05 11:16:12;;;;;;;8.20;7.50;;;;;;;27.03;57.24;99531.70;153881;1096;103212;-70
2021/07/05 11:19:33;;;;;;;7.70;7.00;;;;;;;27.29;56.24;99534.36;153861;1096;103199;-70
2021/07/05 11:22:39;;;;;;;7.48;6.80;;;;;;;27.48;56.35;99526.31;153865;1101;103336;-71
2021/07/05 11:25:44;;;;;;;8.60;7.60;;;;;;;27.65;54.86;99537.71;153913;1101;103489;-71
2021/07/05 11:29:09;;;;;;;8.95;7.73;;;;;;;27.72;55.55;99535.48;153802;1101;103495;-70
2021/07/05 11:32:33;;;;;;;8.20;7.40;;;;;;;27.74;54.90;99536.02;153830;1101;103201;-71
2021/07/05 11:35:47;;;;;;;7.68;7.08;;;;;;;27.67;55.22;99543.72;153810;1096;103575;-70
2021/07/05 11:39:04;;;;;;;7.78;7.08;;;;;;;27.73;55.27;99534.36;153887;1101;103653;-70
2021/07/05 11:42:11;;;;;;;6.07;5.47;;;;;;;27.82;54.67;99529.11;153836;1096;103265;-70
2021/07/05 11:45:36;;;;;;;5.73;5.30;;;;;;;27.93;54.72;99538.92;153841;1096;103167;-70
2021/07/05 11:48:56;;;;;;;6.20;5.60;;;;;;;27.82;53.96;99531.84;153840;1096;103201;-70
2021/07/05 11:52:02;;;;;;;6.60;6.10;;;;;;;27.58;54.17;99527.08;153888;1101;103131;-70
2021/07/05 11:55:08;;;;;;;6.40;5.90;;;;;;;27.40;54.39;99527.72;153829;1096;103123;-70
2021/07/05 11:58:13;;;;;;;6.70;6.10;;;;;;;27.39;53.82;99523.36;153882;1101;103173;-70
2021/07/05 12:01:18;;;;;;;6.10;5.60;;;;;;;27.28;53.92;99532.73;153825;1101;103213;-70
2021/07/05 12:04:29;;;;;;;6.10;5.60;;;;;;;27.16;54.42;99524.81;153836;1096;103224;-71
2021/07/05 12:07:34;;;;;;;6.83;5.13;;;;;;;27.06;53.57;99519.36;153894;1095;103198;-70
2021/07/05 12:10:42;;;;;;;5.60;5.10;;;;;;;26.94;53.81;99523.23;153900;1101;103201;-70
2021/07/05 12:13:47;;;;;;;5.70;5.23;;;;;;;26.87;53.67;99509.05;153956;1101;103170;-71
2021/07/05 12:16:54;;;;;;;5.60;5.10;;;;;;;26.84;53.38;99510.41;153814;1095;103204;-71
2021/07/05 12:19:59;;;;;;;5.57;5.07;;;;;;;26.83;53.07;99516.19;154015;1096;103135;-70
2021/07/05 12:23:13;;;;;;;5.95;5.45;;;;;;;26.87;53.15;99506.31;153904;1101;103144;-70
2021/07/05 12:26:21;;;;;;;5.60;5.10;;;;;;;26.95;52.44;99502.98;153803;1096;103221;-71
2021/07/05 12:29:30;;;;;;;5.88;5.30;;;;;;;27.07;52.98;99499.11;153865;1096;103214;-71
2021/07/05 12:32:37;;;;;;;5.57;5.07;;;;;;;27.31;52.45;99502.02;153898;1101;103177;-70
2021/07/05 12:35:42;;;;;;;5.20;4.80;;;;;;;27.65;53.02;99507.56;153881;1101;103134;-70
2021/07/05 12:39:03;;;;;;;5.08;4.68;;;;;;;27.94;52.33;99504.90;153900;1096;103143;-70
2021/07/05 12:42:23;;;;;;;5.45;4.95;;;;;;;28.08;51.22;99512.47;153870;1096;103839;-70
2021/07/05 12:45:32;;;;;;;7.08;4.90;;;;;;;27.99;51.48;99509.55;154005;1101;103254;-70
2021/07/05 12:48:37;;;;;;;5.80;5.20;;;;;;;28.06;51.51;99510.04;153988;1101;103190;-70
2021/07/05 12:51:43;;;;;;;5.68;5.18;;;;;;;28.26;51.25;99513.70;153826;1101;103134;-72
2021/07/05 12:54:48;;;;;;;5.38;4.88;;;;;;;28.33;50.60;99503.19;153864;1095;103586;-71
2021/07/05 12:57:57;;;;;;;5.90;5.00;;;;;;;28.40;50.61;99500.93;153818;1096;103122;-70
2021/07/05 13:01:02;;;;;;;5.20;4.80;;;;;;;28.53;51.05;99494.78;153913;1096;103219;-70
2021/07/05 13:04:08;;;;;;;5.30;4.77;;;;;;;28.60;50.50;99497.20;153834;1101;103230;-71
2021/07/05 13:07:21;;;;;;;4.88;4.48;;;;;;;28.55;50.62;99492.56;153862;1101;103180;-70
2021/07/05 13:10:31;;;;;;;5.35;4.85;;;;;;;28.46;50.37;99493.46;154087;1101;103189;-71
2021/07/05 13:13:41;;;;;;;5.18;4.63;;;;;;;28.40;51.02;99492.70;153895;1101;103198;-71
2021/07/05 13:16:46;;;;;;;5.10;4.57;;;;;;;28.39;50.27;99497.38;153881;1101;103118;-72
2021/07/05 13:19:52;;;;;;;5.33;4.83;;;;;;;28.46;49.71;99491.53;153886;1101;103218;-71
2021/07/05 13:22:59;;;;;;;5.45;4.98;;;;;;;28.51;49.31;99487.93;153924;1101;103265;-71
2021/07/05 13:26:06;;;;;;;5.30;4.80;;;;;;;28.56;49.23;99485.98;153812;1101;103557;-71
2021/07/05 13:29:19;;;;;;;5.30;4.90;;;;;;;28.58;49.55;99483.77;153843;1096;103150;-71
2021/07/05 13:32:26;;;;;;;5.30;4.80;;;;;;;28.39;49.28;99491.08;153949;1101;103186;-71
2021/07/05 13:35:34;;;;;;;5.48;5.08;;;;;;;28.27;48.24;99488.70;153817;1096;103265;-72
2021/07/05 13:38:42;;;;;;;5.18;4.78;;;;;;;28.03;48.03;99491.41;153862;1101;103203;-71
2021/07/05 13:41:48;;;;;;;5.18;4.75;;;;;;;27.85;48.96;99486.58;153841;1096;103132;-72
2021/07/05 13:44:57;;;;;;;5.20;4.78;;;;;;;27.79;46.71;99485.80;153794;1101;103116;-71
2021/07/05 13:48:06;;;;;;;5.57;4.67;;;;;;;27.68;46.15;99487.81;153836;1101;103119;-71
2021/07/05 13:51:14;;;;;;;6.63;5.23;;;;;;;27.67;46.90;99491.65;153798;1101;103174;-70
2021/07/05 13:54:30;;;;;;;5.53;5.03;;;;;;;27.67;47.74;99485.36;153923;1096;103129;-70
2021/07/05 13:57:35;;;;;;;5.00;4.60;;;;;;;27.56;47.73;99487.34;154164;1101;103199;-71
2021/07/05 14:00:43;;;;;;;5.43;4.93;;;;;;;27.48;47.61;99482.47;153881;1096;103134;-71
2021/07/05 14:03:49;;;;;;;5.43;4.93;;;;;;;27.44;47.46;99475.92;153980;1101;103323;-71
2021/07/05 14:06:54;;;;;;;5.15;4.75;;;;;;;27.47;47.39;99478.92;153912;1101;103270;-69
2021/07/05 14:09:59;;;;;;;5.03;4.60;;;;;;;27.47;47.51;99476.18;153815;1101;103133;-69
2021/07/05 14:13:06;;;;;;;5.87;5.13;;;;;;;27.40;46.85;99471.00;153845;1095;103172;-71
2021/07/05 14:16:12;;;;;;;5.30;4.80;;;;;;;27.39;47.64;99479.53;153999;1101;103147;-71
2021/07/05 14:19:17;;;;;;;4.98;4.48;;;;;;;27.40;47.90;99470.19;154224;1101;103070;-73